Guaraci, Brazil
Current Conditions -  °F | °C
As of 3:00 PM on Saturday 25 Oct 2014 (Local Time) from SBSR Reporting Station
Light Rain Light Rain  
Wind Chill: 72°   Ceiling: 7000
Heat Index: 72°   Visibility: 6mi
Dew Point: 64°   Wind: 5mph
Humidity: 78%   Direction: 90°E
Pressure: 30.03"   Gusts: NA
Location:  20.5°S, 48.94°W
Report Text: SBSR 251700Z 09004KT 9999 -RA SCT010 OVC070 22/18 Q1017
Loading
Personal Weather Stations






























Interactive Weather Map
Tropical Storm Tracking
New forecast layout! Learn more

10-Day Weather Forecast

Advertisements
Track Severe Weather on mobile